createdAt,value
2022-08-28T00:00:58.904Z,36.90
2022-08-28T00:03:12.571Z,26.60
2022-08-28T00:05:28.123Z,29.40
2022-08-28T00:07:44.368Z,30.50
2022-08-28T00:10:00.703Z,38.10
2022-08-28T00:12:14.387Z,27.40
2022-08-28T00:14:28.450Z,42.40
2022-08-28T00:16:41.784Z,40.50
2022-08-28T00:18:54.831Z,37.30
2022-08-28T00:21:08.291Z,32.20
2022-08-28T00:23:21.954Z,31.90
2022-08-28T00:25:36.915Z,22.70
2022-08-28T00:27:58.822Z,22.50
2022-08-28T00:30:14.099Z,31.50
2022-08-28T00:32:27.099Z,30.90
2022-08-28T00:34:40.311Z,37.10
2022-08-28T00:36:53.488Z,25.50
2022-08-28T00:39:07.407Z,23.20
2022-08-28T00:41:24.776Z,33.50
2022-08-28T00:43:43.812Z,37.60
2022-08-28T00:45:57.093Z,38.40
2022-08-28T00:48:10.730Z,40.70
2022-08-28T00:50:27.772Z,35.80
2022-08-28T00:52:41.546Z,56.10
2022-08-28T00:54:59.858Z,41.80
2022-08-28T00:57:18.270Z,32.90
2022-08-28T00:59:32.008Z,28.30
2022-08-28T01:01:45.814Z,37.50
2022-08-28T01:03:59.203Z,36.80
2022-08-28T01:06:13.085Z,36.40
2022-08-28T01:08:26.307Z,48.70
2022-08-28T01:10:45.869Z,45.30
2022-08-28T01:13:00.746Z,56.50
2022-08-28T01:15:18.739Z,58.40
2022-08-28T01:17:34.477Z,57.90
2022-08-28T01:19:58.246Z,51.40
2022-08-28T01:22:23.129Z,59.30
2022-08-28T01:24:38.513Z,66.00
2022-08-28T01:26:51.636Z,47.80
2022-08-28T01:29:05.203Z,70.00
2022-08-28T01:31:20.382Z,37.00
2022-08-28T01:33:33.415Z,51.90
2022-08-28T01:35:50.286Z,37.80
2022-08-28T01:38:04.352Z,41.70
2022-08-28T01:40:21.399Z,37.70
2022-08-28T01:42:34.479Z,43.60
2022-08-28T01:44:47.664Z,35.60
2022-08-28T01:47:02.206Z,35.20
2022-08-28T01:49:15.668Z,41.10
2022-08-28T01:51:28.671Z,46.10
2022-08-28T01:53:48.179Z,55.40
2022-08-28T01:56:04.621Z,47.70
2022-08-28T01:58:18.329Z,43.70
2022-08-28T02:00:32.117Z,35.20
2022-08-28T02:02:45.153Z,26.00
2022-08-28T02:04:58.547Z,40.60
2022-08-28T02:07:11.653Z,40.20
2022-08-28T02:09:24.648Z,27.80
2022-08-28T02:11:37.847Z,42.60
2022-08-28T02:13:56.460Z,11.30
2022-08-28T02:16:12.004Z,4.90
2022-08-28T02:18:25.584Z,15.00
2022-08-28T02:20:38.836Z,8.70
2022-08-28T02:22:53.102Z,7.60
2022-08-28T02:25:06.757Z,19.10
2022-08-28T02:27:20.039Z,35.30
2022-08-28T02:29:33.109Z,31.00
2022-08-28T02:31:46.084Z,42.90
2022-08-28T02:33:59.160Z,53.10
2022-08-28T02:36:30.865Z,41.80
2022-08-28T02:38:44.647Z,39.60
2022-08-28T02:40:57.901Z,29.30
2022-08-28T02:43:11.037Z,21.70
2022-08-28T02:45:24.579Z,16.40
2022-08-28T02:47:37.553Z,32.90
2022-08-28T02:49:51.093Z,40.20
2022-08-28T02:52:04.359Z,45.70
2022-08-28T02:54:18.803Z,29.00
2022-08-28T02:56:32.229Z,27.70
2022-08-28T02:58:46.318Z,20.10
2022-08-28T03:00:59.640Z,37.90
2022-08-28T03:03:12.743Z,15.40
2022-08-28T03:05:28.118Z,22.10
2022-08-28T03:07:41.480Z,19.70
2022-08-28T03:09:54.650Z,25.40
2022-08-28T03:12:08.162Z,31.90
2022-08-28T03:14:21.936Z,31.90
2022-08-28T03:16:35.629Z,27.20
2022-08-28T03:18:50.348Z,22.70
2022-08-28T03:21:04.418Z,25.90
2022-08-28T03:23:29.823Z,11.80
2022-08-28T03:25:43.006Z,9.60
2022-08-28T03:27:56.520Z,11.80
2022-08-28T03:30:11.509Z,10.30
2022-08-28T03:32:24.724Z,9.20
2022-08-28T03:34:42.528Z,11.70
2022-08-28T03:36:55.628Z,6.70
2022-08-28T03:39:10.415Z,8.30
2022-08-28T03:41:26.477Z,6.40
2022-08-28T03:43:39.648Z,14.70
2022-08-28T03:46:01.816Z,11.00
2022-08-28T03:48:14.967Z,12.70
2022-08-28T03:50:28.550Z,11.90
2022-08-28T03:52:43.004Z,6.00
2022-08-28T03:54:56.401Z,7.90
2022-08-28T03:57:09.654Z,11.10
2022-08-28T03:59:26.618Z,9.10
2022-08-28T04:01:45.011Z,10.40
2022-08-28T04:03:58.191Z,12.20
2022-08-28T04:06:11.776Z,10.10
2022-08-28T04:08:26.071Z,11.40
2022-08-28T04:10:39.406Z,11.50
2022-08-28T04:12:52.545Z,14.80
2022-08-28T04:15:07.000Z,12.10
2022-08-28T04:17:21.188Z,10.60
2022-08-28T04:19:34.461Z,9.20
2022-08-28T04:21:47.827Z,10.40
2022-08-28T04:24:01.041Z,11.00
2022-08-28T04:26:15.350Z,8.90
2022-08-28T04:28:29.046Z,7.40
2022-08-28T04:30:43.749Z,6.50
2022-08-28T04:32:56.823Z,7.40
2022-08-28T04:35:11.672Z,8.10
2022-08-28T04:37:24.947Z,10.90
2022-08-28T04:39:41.156Z,10.00
2022-08-28T04:41:55.112Z,9.00
2022-08-28T04:44:08.702Z,7.40
2022-08-28T04:46:21.896Z,10.10
2022-08-28T04:48:35.154Z,8.40
2022-08-28T04:50:49.328Z,8.00
2022-08-28T04:53:02.449Z,12.10
2022-08-28T04:55:18.305Z,12.80
2022-08-28T04:57:46.925Z,7.60
2022-08-28T05:00:00.028Z,11.40
2022-08-28T05:02:13.303Z,9.80
2022-08-28T05:04:28.142Z,7.20
2022-08-28T05:06:44.571Z,8.70
2022-08-28T05:08:57.793Z,10.10
2022-08-28T05:11:33.215Z,11.90
2022-08-28T05:13:47.224Z,9.90
2022-08-28T05:16:00.346Z,8.20
2022-08-28T05:18:13.596Z,9.70
2022-08-28T05:20:27.136Z,8.50
2022-08-28T05:22:40.482Z,5.80
2022-08-28T05:24:53.664Z,12.80
2022-08-28T05:27:06.827Z,11.80
2022-08-28T05:29:20.339Z,10.80
2022-08-28T05:31:36.259Z,11.50
2022-08-28T05:33:49.735Z,8.20
2022-08-28T05:36:07.842Z,10.00
2022-08-28T05:38:21.789Z,9.50
2022-08-28T05:40:35.089Z,12.70
2022-08-28T05:42:48.807Z,10.30
2022-08-28T05:45:02.494Z,12.50
2022-08-28T05:47:16.465Z,10.70
2022-08-28T05:49:34.594Z,12.50
2022-08-28T05:51:48.816Z,14.10
2022-08-28T05:54:02.477Z,7.90
2022-08-28T05:56:17.368Z,10.90
2022-08-28T05:58:33.607Z,15.30
2022-08-28T06:00:46.677Z,7.90
2022-08-28T06:03:00.366Z,12.20
2022-08-28T06:05:14.309Z,8.60
2022-08-28T06:07:27.852Z,9.70
2022-08-28T06:09:40.980Z,8.20
2022-08-28T06:11:54.459Z,8.90
2022-08-28T06:14:10.831Z,13.70
2022-08-28T06:16:24.577Z,8.90
2022-08-28T06:18:37.578Z,9.30
2022-08-28T06:20:51.741Z,10.20
2022-08-28T06:23:04.972Z,9.60
2022-08-28T06:25:18.238Z,13.10
2022-08-28T06:27:32.400Z,11.70
2022-08-28T06:29:45.896Z,11.40
2022-08-28T06:32:02.101Z,11.70
2022-08-28T06:34:15.535Z,19.20
2022-08-28T06:36:29.853Z,10.40
2022-08-28T06:38:47.636Z,8.80
2022-08-28T06:41:01.419Z,13.30
2022-08-28T06:43:14.340Z,10.80
2022-08-28T06:45:27.444Z,9.40
2022-08-28T06:47:40.394Z,13.20
2022-08-28T06:49:53.491Z,8.30
2022-08-28T06:52:06.703Z,9.10
2022-08-28T06:54:22.908Z,6.80
2022-08-28T06:56:37.153Z,8.20
2022-08-28T06:58:51.830Z,7.30
2022-08-28T07:01:14.521Z,6.60
2022-08-28T07:03:27.537Z,10.80
2022-08-28T07:05:40.802Z,5.80
2022-08-28T07:07:53.937Z,9.40
2022-08-28T07:10:07.374Z,11.50
2022-08-28T07:12:22.264Z,7.80
2022-08-28T07:14:35.234Z,8.10
2022-08-28T07:16:48.259Z,6.90
2022-08-28T07:19:03.875Z,4.80
2022-08-28T07:21:17.113Z,8.50
2022-08-28T07:23:30.245Z,8.20
2022-08-28T07:25:45.388Z,6.50
2022-08-28T07:27:58.365Z,11.00
2022-08-28T07:30:14.422Z,11.60
2022-08-28T07:32:27.470Z,9.30
2022-08-28T07:34:43.875Z,7.40
2022-08-28T07:36:57.421Z,6.60
2022-08-28T07:39:11.157Z,7.90
2022-08-28T07:41:26.546Z,10.40
2022-08-28T07:43:55.883Z,16.30
2022-08-28T07:46:12.604Z,7.60
2022-08-28T07:48:26.058Z,6.90
2022-08-28T07:50:39.158Z,11.30
2022-08-28T07:52:54.455Z,9.60
2022-08-28T07:55:09.908Z,7.40
2022-08-28T07:57:23.321Z,10.00
2022-08-28T07:59:37.208Z,8.50
2022-08-28T08:01:52.501Z,9.80
2022-08-28T08:04:05.526Z,10.40
2022-08-28T08:06:18.649Z,8.80
2022-08-28T08:08:32.344Z,5.90
2022-08-28T08:10:45.261Z,9.00
2022-08-28T08:12:58.968Z,9.90
2022-08-28T08:15:13.246Z,7.60
2022-08-28T08:17:26.501Z,5.60
2022-08-28T08:19:39.742Z,6.90
2022-08-28T08:21:55.063Z,8.40
2022-08-28T08:24:09.521Z,9.50
2022-08-28T08:26:24.484Z,12.40
2022-08-28T08:28:38.543Z,10.60
2022-08-28T08:30:51.611Z,5.40
2022-08-28T08:33:04.771Z,10.40
2022-08-28T08:35:18.459Z,7.70
2022-08-28T08:37:31.430Z,10.00
2022-08-28T08:39:46.901Z,7.10
2022-08-28T08:42:02.723Z,7.40
2022-08-28T08:44:28.031Z,10.10
2022-08-28T08:46:50.574Z,8.10
2022-08-28T08:49:05.779Z,11.60
2022-08-28T08:51:28.129Z,6.00
2022-08-28T08:53:47.694Z,4.60
2022-08-28T08:56:04.172Z,8.60
2022-08-28T08:58:23.438Z,5.90
2022-08-28T09:00:40.804Z,6.10
2022-08-28T09:03:00.246Z,8.20
2022-08-28T09:05:20.000Z,11.80
2022-08-28T09:07:39.938Z,7.40
2022-08-28T09:09:55.408Z,6.00
2022-08-28T09:12:10.975Z,5.10
2022-08-28T09:14:31.021Z,10.40
2022-08-28T09:16:48.232Z,5.60
2022-08-28T09:19:03.276Z,6.40
2022-08-28T09:21:29.187Z,9.80
2022-08-28T09:23:42.532Z,11.00
2022-08-28T09:26:03.391Z,7.40
2022-08-28T09:28:18.382Z,4.60
2022-08-28T09:30:38.686Z,8.30
2022-08-28T09:33:03.932Z,8.30
2022-08-28T09:35:29.080Z,7.10
2022-08-28T09:37:43.694Z,8.70
2022-08-28T09:40:16.755Z,4.70
2022-08-28T09:42:46.426Z,10.10
2022-08-28T09:45:09.530Z,6.00
2022-08-28T09:47:46.329Z,7.60
2022-08-28T09:50:17.552Z,5.20
2022-08-28T09:52:30.501Z,7.10
2022-08-28T09:54:46.689Z,8.00
2022-08-28T09:57:00.274Z,5.80
2022-08-28T09:59:16.830Z,7.40
2022-08-28T10:01:45.212Z,7.10
2022-08-28T10:04:05.462Z,7.30
2022-08-28T10:06:27.523Z,7.00
2022-08-28T10:08:56.593Z,9.10
2022-08-28T10:11:17.308Z,7.20
2022-08-28T10:13:38.562Z,10.90
2022-08-28T10:16:06.648Z,7.20
2022-08-28T10:18:40.394Z,7.20
2022-08-28T10:21:04.182Z,7.80
2022-08-28T10:23:29.474Z,11.90
2022-08-28T10:25:49.150Z,8.30
2022-08-28T10:28:21.262Z,5.60
2022-08-28T10:30:39.061Z,9.70
2022-08-28T10:33:22.576Z,5.70
2022-08-28T10:35:47.662Z,6.60
2022-08-28T10:38:06.386Z,7.00
2022-08-28T10:40:25.241Z,6.70
2022-08-28T10:42:41.866Z,10.10
2022-08-28T10:44:59.177Z,6.50
2022-08-28T10:47:16.221Z,8.40
2022-08-28T10:49:33.564Z,9.70
2022-08-28T10:51:51.352Z,6.90
2022-08-28T10:54:09.707Z,7.90
2022-08-28T10:56:25.204Z,6.90
2022-08-28T10:58:41.013Z,8.30
2022-08-28T11:00:55.150Z,5.90
2022-08-28T11:03:27.031Z,11.00
2022-08-28T11:05:53.806Z,9.60
2022-08-28T11:08:12.227Z,5.30
2022-08-28T11:10:42.919Z,139.60
2022-08-28T11:12:56.985Z,256.20
2022-08-28T11:15:40.177Z,256.40
2022-08-28T11:17:53.503Z,184.70
2022-08-28T11:20:19.049Z,172.80
2022-08-28T11:22:37.335Z,140.60
2022-08-28T11:25:03.297Z,88.00
2022-08-28T11:27:34.430Z,65.90
2022-08-28T11:30:30.439Z,29.40
2022-08-28T11:33:02.891Z,19.50
2022-08-28T11:35:51.458Z,19.70
2022-08-28T11:38:04.577Z,34.70
2022-08-28T11:40:45.330Z,62.60
2022-08-28T11:43:19.149Z,45.40
2022-08-28T11:46:15.071Z,19.90
2022-08-28T11:48:56.243Z,15.40
2022-08-28T11:51:14.856Z,11.60
2022-08-28T11:53:43.032Z,7.60
2022-08-28T11:56:12.342Z,11.10
2022-08-28T11:58:32.781Z,8.00
2022-08-28T12:01:03.964Z,8.00
2022-08-28T12:03:19.114Z,10.30
2022-08-28T12:05:58.562Z,9.90
2022-08-28T12:08:12.639Z,8.10
2022-08-28T12:11:01.394Z,5.90
2022-08-28T12:13:34.953Z,9.60
2022-08-28T12:16:05.530Z,9.00
2022-08-28T12:19:00.517Z,6.10
2022-08-28T12:21:21.355Z,6.30
2022-08-28T12:23:44.530Z,6.80
2022-08-28T12:26:06.425Z,11.10
2022-08-28T12:28:26.281Z,10.10
2022-08-28T12:30:48.197Z,8.60
2022-08-28T12:33:06.784Z,6.60
2022-08-28T12:35:26.037Z,8.30
2022-08-28T12:37:52.016Z,7.90
2022-08-28T12:40:11.614Z,10.60
2022-08-28T12:42:27.662Z,10.60
2022-08-28T12:44:40.687Z,8.60
2022-08-28T12:46:53.834Z,9.60
2022-08-28T12:49:09.074Z,10.20
2022-08-28T12:51:26.734Z,10.50
2022-08-28T12:53:48.137Z,8.40
2022-08-28T12:56:01.064Z,10.50
2022-08-28T12:58:31.008Z,9.50
2022-08-28T13:00:56.939Z,9.80
2022-08-28T13:03:10.661Z,9.40
2022-08-28T13:05:37.031Z,13.70
2022-08-28T13:07:54.246Z,6.40
2022-08-28T13:10:10.395Z,9.80
2022-08-28T13:12:55.381Z,7.10
2022-08-28T13:15:03.330Z,7.80
2022-08-28T13:17:18.657Z,11.50
2022-08-28T13:19:35.932Z,7.60
2022-08-28T13:22:02.924Z,11.10
2022-08-28T13:24:44.723Z,10.50
2022-08-28T13:27:08.648Z,13.30
2022-08-28T13:29:27.071Z,9.10
2022-08-28T13:31:41.761Z,13.00
2022-08-28T13:34:12.431Z,12.80
2022-08-28T13:36:29.532Z,10.60
2022-08-28T13:38:42.526Z,12.30
2022-08-28T13:40:59.123Z,12.30
2022-08-28T13:43:14.818Z,12.70
2022-08-28T13:45:29.757Z,9.40
2022-08-28T13:47:55.277Z,11.10
2022-08-28T13:50:08.849Z,11.60
2022-08-28T13:52:22.161Z,12.20
2022-08-28T13:54:35.382Z,14.90
2022-08-28T13:56:48.557Z,11.20
2022-08-28T13:59:01.442Z,10.70
2022-08-28T14:01:15.137Z,15.30
2022-08-28T14:03:42.372Z,14.10
2022-08-28T14:05:55.531Z,13.50
2022-08-28T14:08:08.966Z,10.90
2022-08-28T14:10:22.763Z,11.50
2022-08-28T14:12:36.380Z,9.30
2022-08-28T14:14:50.029Z,9.50
2022-08-28T14:17:03.635Z,14.10
2022-08-28T14:19:16.840Z,12.40
2022-08-28T14:21:29.854Z,13.10
2022-08-28T14:23:43.016Z,11.40
2022-08-28T14:25:56.439Z,12.70
2022-08-28T14:28:09.569Z,23.00
2022-08-28T14:30:23.715Z,39.00
2022-08-28T14:32:37.020Z,36.90
2022-08-28T14:34:51.826Z,24.00
2022-08-28T14:37:04.843Z,17.70
2022-08-28T14:39:19.085Z,49.50
2022-08-28T14:41:32.682Z,57.60
2022-08-28T14:43:45.791Z,43.70
2022-08-28T14:45:59.089Z,25.50
2022-08-28T14:48:12.202Z,12.70
2022-08-28T14:50:25.327Z,10.50
2022-08-28T14:52:41.757Z,10.00
2022-08-28T14:54:54.747Z,8.10
2022-08-28T14:57:07.914Z,11.80
2022-08-28T14:59:24.472Z,12.20
2022-08-28T15:01:41.067Z,7.60
2022-08-28T15:03:54.314Z,12.90
2022-08-28T15:06:12.255Z,12.00
2022-08-28T15:08:25.240Z,6.80
2022-08-28T15:10:38.208Z,9.50
2022-08-28T15:12:51.230Z,7.70
2022-08-28T15:15:05.480Z,8.90
2022-08-28T15:17:18.515Z,12.80
2022-08-28T15:19:31.471Z,9.90
2022-08-28T15:21:47.731Z,8.30
2022-08-28T15:24:02.508Z,11.80
2022-08-28T15:26:15.818Z,8.10
2022-08-28T15:28:29.111Z,8.20
2022-08-28T15:30:42.996Z,10.70
2022-08-28T15:32:56.014Z,9.50
2022-08-28T15:35:10.298Z,14.00
2022-08-28T15:37:23.367Z,9.50
2022-08-28T15:39:52.675Z,9.90
2022-08-28T15:42:06.710Z,8.20
2022-08-28T15:44:19.780Z,6.00
2022-08-28T15:46:34.889Z,7.40
2022-08-28T15:48:49.369Z,5.00
2022-08-28T15:51:02.436Z,10.00
2022-08-28T15:53:17.769Z,9.80
2022-08-28T15:55:31.443Z,10.30
2022-08-28T15:57:44.500Z,9.50
2022-08-28T15:59:57.567Z,8.80
2022-08-28T16:02:10.850Z,6.40
2022-08-28T16:04:23.885Z,6.00
2022-08-28T16:06:37.867Z,6.10
2022-08-28T16:08:51.183Z,7.80
2022-08-28T16:11:04.321Z,6.40
2022-08-28T16:13:17.276Z,7.80
2022-08-28T16:15:30.581Z,4.90
2022-08-28T16:17:43.592Z,4.90
2022-08-28T16:19:56.726Z,7.40
2022-08-28T16:22:09.950Z,5.70
2022-08-28T16:24:22.862Z,6.10
2022-08-28T16:26:36.093Z,7.80
2022-08-28T16:28:49.402Z,6.90
2022-08-28T16:31:02.556Z,6.10
2022-08-28T16:33:23.285Z,5.10
2022-08-28T16:35:37.055Z,4.00
2022-08-28T16:37:50.253Z,3.70
2022-08-28T16:40:04.701Z,5.90
2022-08-28T16:42:18.465Z,5.80
2022-08-28T16:44:31.805Z,4.20
2022-08-28T16:46:45.401Z,3.80
2022-08-28T16:48:59.110Z,3.90
2022-08-28T16:51:12.590Z,9.10
2022-08-28T16:53:27.121Z,4.40
2022-08-28T16:55:41.697Z,4.40
2022-08-28T16:57:55.019Z,4.00
2022-08-28T17:00:09.195Z,4.80
2022-08-28T17:02:26.651Z,6.10
2022-08-28T17:04:39.810Z,3.90
2022-08-28T17:06:53.450Z,3.50
2022-08-28T17:09:09.122Z,10.30
2022-08-28T17:11:22.932Z,7.40
2022-08-28T17:13:35.881Z,17.50
2022-08-28T17:15:49.110Z,14.90
2022-08-28T17:18:02.444Z,19.10
2022-08-28T17:20:30.222Z,13.20
2022-08-28T17:22:43.224Z,6.50
2022-08-28T17:24:56.257Z,2.70
2022-08-28T17:27:09.615Z,4.70
2022-08-28T17:29:22.691Z,20.60
2022-08-28T17:31:35.924Z,22.80
2022-08-28T17:33:50.264Z,30.00
2022-08-28T17:36:03.828Z,17.80
2022-08-28T17:38:16.770Z,25.80
2022-08-28T17:40:30.123Z,30.70
2022-08-28T17:42:43.294Z,25.90
2022-08-28T17:44:56.538Z,30.70
2022-08-28T17:47:09.945Z,42.30
2022-08-28T17:49:23.622Z,30.30
2022-08-28T17:51:42.388Z,15.50
2022-08-28T17:53:57.042Z,36.00
2022-08-28T17:56:12.670Z,37.00
2022-08-28T17:58:25.706Z,30.20
2022-08-28T18:00:38.873Z,19.60
2022-08-28T18:02:53.205Z,31.20
2022-08-28T18:05:07.095Z,29.30
2022-08-28T18:07:20.219Z,23.40
2022-08-28T18:09:36.969Z,23.60
2022-08-28T18:11:50.430Z,30.80
2022-08-28T18:14:03.429Z,24.00
2022-08-28T18:16:16.501Z,24.50
2022-08-28T18:18:36.334Z,17.70
2022-08-28T18:20:49.765Z,19.60
2022-08-28T18:23:03.559Z,35.20
2022-08-28T18:25:30.768Z,32.50
2022-08-28T18:27:43.785Z,19.00
2022-08-28T18:29:56.745Z,16.80
2022-08-28T18:32:10.928Z,19.80
2022-08-28T18:34:24.100Z,12.70
2022-08-28T18:36:42.691Z,11.90
2022-08-28T18:38:56.935Z,20.40
2022-08-28T18:41:12.062Z,12.20
2022-08-28T18:43:25.216Z,22.90
2022-08-28T18:45:38.541Z,20.20
2022-08-28T18:47:51.717Z,22.00
2022-08-28T18:50:05.172Z,22.80
2022-08-28T18:52:18.806Z,25.30
2022-08-28T18:54:32.440Z,16.50
2022-08-28T18:56:49.101Z,24.80
2022-08-28T18:59:03.468Z,14.00
2022-08-28T19:01:16.953Z,22.60
2022-08-28T19:03:30.093Z,19.80
2022-08-28T19:05:43.949Z,13.20
2022-08-28T19:07:57.096Z,29.60
2022-08-28T19:10:32.145Z,12.70
2022-08-28T19:12:46.922Z,18.00
2022-08-28T19:15:01.482Z,18.80
2022-08-28T19:17:19.038Z,31.50
2022-08-28T19:19:34.962Z,23.10
2022-08-28T19:21:47.929Z,22.50
2022-08-28T19:24:00.874Z,25.90
2022-08-28T19:26:14.237Z,19.50
2022-08-28T19:28:27.170Z,15.40
2022-08-28T19:30:40.660Z,16.80
2022-08-28T19:32:54.035Z,20.10
2022-08-28T19:35:07.262Z,20.00
2022-08-28T19:37:20.332Z,18.50
2022-08-28T19:39:33.714Z,10.20
2022-08-28T19:41:47.355Z,24.80
2022-08-28T19:44:00.425Z,14.60
2022-08-28T19:46:19.809Z,18.60
2022-08-28T19:48:33.976Z,20.60
2022-08-28T19:50:47.236Z,14.50
2022-08-28T19:53:00.216Z,11.00
2022-08-28T19:55:18.832Z,19.30
2022-08-28T19:57:31.866Z,14.00
2022-08-28T19:59:45.029Z,18.90
2022-08-28T20:01:58.110Z,17.90
2022-08-28T20:04:14.498Z,21.40
2022-08-28T20:06:27.574Z,15.50
2022-08-28T20:08:40.878Z,17.00
2022-08-28T20:10:55.098Z,16.20
2022-08-28T20:13:08.119Z,12.80
2022-08-28T20:15:22.092Z,15.30
2022-08-28T20:17:35.411Z,11.20
2022-08-28T20:19:59.693Z,18.00
2022-08-28T20:22:15.992Z,25.50
2022-08-28T20:24:29.302Z,18.30
2022-08-28T20:26:42.741Z,19.90
2022-08-28T20:28:56.333Z,15.50
2022-08-28T20:31:13.623Z,17.30
2022-08-28T20:33:26.766Z,22.10
2022-08-28T20:35:40.119Z,11.50
2022-08-28T20:37:53.216Z,19.40
2022-08-28T20:40:09.931Z,14.10
2022-08-28T20:42:23.069Z,11.30
2022-08-28T20:44:36.090Z,17.70
2022-08-28T20:46:51.464Z,13.80
2022-08-28T20:49:07.028Z,13.80
2022-08-28T20:51:40.146Z,8.40
2022-08-28T20:53:55.763Z,14.40
2022-08-28T20:56:11.114Z,18.20
2022-08-28T20:58:24.202Z,12.70
2022-08-28T21:00:37.227Z,15.80
2022-08-28T21:02:50.259Z,8.90
2022-08-28T21:05:04.305Z,13.00
2022-08-28T21:07:18.754Z,10.90
2022-08-28T21:09:35.865Z,18.90
2022-08-28T21:12:04.913Z,12.80
2022-08-28T21:14:18.003Z,13.30
2022-08-28T21:16:31.424Z,15.20
2022-08-28T21:18:59.277Z,13.90
2022-08-28T21:21:17.760Z,9.40
2022-08-28T21:23:33.413Z,11.80
2022-08-28T21:25:48.383Z,6.80
2022-08-28T21:28:04.202Z,8.80
2022-08-28T21:30:20.237Z,10.90
2022-08-28T21:32:35.305Z,23.10
2022-08-28T21:34:48.291Z,18.90
2022-08-28T21:37:01.678Z,15.90
2022-08-28T21:39:14.815Z,18.00
2022-08-28T21:41:27.990Z,11.60
2022-08-28T21:43:41.417Z,14.80
2022-08-28T21:46:03.738Z,12.20
2022-08-28T21:48:16.778Z,11.10
2022-08-28T21:50:30.627Z,11.50
2022-08-28T21:52:44.430Z,16.00
2022-08-28T21:55:03.178Z,13.80
2022-08-28T21:57:16.190Z,14.20
2022-08-28T21:59:32.572Z,12.10
2022-08-28T22:01:51.241Z,11.80
2022-08-28T22:04:04.212Z,12.20
2022-08-28T22:06:19.582Z,15.10
2022-08-28T22:08:33.062Z,11.00
2022-08-28T22:10:47.171Z,17.70
2022-08-28T22:13:00.383Z,12.40
2022-08-28T22:15:14.213Z,20.40
2022-08-28T22:17:27.687Z,17.00
2022-08-28T22:19:40.767Z,13.30
2022-08-28T22:22:10.200Z,8.00
2022-08-28T22:24:23.374Z,16.30
2022-08-28T22:26:36.487Z,16.10
2022-08-28T22:28:50.026Z,17.50
2022-08-28T22:31:03.206Z,10.90
2022-08-28T22:33:19.316Z,12.60
2022-08-28T22:35:32.789Z,12.70
2022-08-28T22:37:45.850Z,10.00
2022-08-28T22:39:59.344Z,11.40
2022-08-28T22:42:13.165Z,14.80
2022-08-28T22:44:26.184Z,16.20
2022-08-28T22:46:39.292Z,9.40
2022-08-28T22:48:52.383Z,12.20
2022-08-28T22:51:10.963Z,7.00
2022-08-28T22:53:24.447Z,12.10
2022-08-28T22:55:41.372Z,12.40
2022-08-28T22:57:56.424Z,12.90
2022-08-28T23:00:12.124Z,11.00
2022-08-28T23:02:27.159Z,15.20
2022-08-28T23:04:40.469Z,15.20
2022-08-28T23:06:53.446Z,9.30
2022-08-28T23:09:06.976Z,14.60
2022-08-28T23:11:20.169Z,9.90
2022-08-28T23:13:34.022Z,17.20
2022-08-28T23:15:47.472Z,14.30
2022-08-28T23:18:00.512Z,7.10
2022-08-28T23:20:18.478Z,17.00
2022-08-28T23:22:31.595Z,13.30
2022-08-28T23:24:44.954Z,12.40
2022-08-28T23:27:09.316Z,8.80
2022-08-28T23:29:30.856Z,10.30
2022-08-28T23:31:44.725Z,12.40
2022-08-28T23:33:58.137Z,8.80
2022-08-28T23:36:13.327Z,11.80
2022-08-28T23:38:26.478Z,6.90
2022-08-28T23:40:40.599Z,4.60
2022-08-28T23:42:54.496Z,11.10
2022-08-28T23:45:08.129Z,12.90
2022-08-28T23:47:21.197Z,15.40
2022-08-28T23:49:34.267Z,9.40
2022-08-28T23:51:55.693Z,10.90
2022-08-28T23:54:08.993Z,15.90
2022-08-28T23:56:22.092Z,16.20
2022-08-28T23:58:43.091Z,17.20
